sensor_id;sensor_type;location;lat;lon;timestamp;pressure;altitude;pressure_sealevel;temperature;humidity
39455;BME280;25155;41.890;23.446;2023-03-26T00:01:18;91245.56;;;5.92;57.63
39455;BME280;25155;41.890;23.446;2023-03-26T00:03:46;91240.88;;;5.94;57.13
39455;BME280;25155;41.890;23.446;2023-03-26T00:06:20;91245.28;;;5.93;56.86
39455;BME280;25155;41.890;23.446;2023-03-26T00:08:50;91249.69;;;5.98;56.86
39455;BME280;25155;41.890;23.446;2023-03-26T00:11:20;91246.84;;;5.94;56.72
39455;BME280;25155;41.890;23.446;2023-03-26T00:13:47;91230.22;;;5.90;56.93
39455;BME280;25155;41.890;23.446;2023-03-26T00:16:17;91243.22;;;5.90;57.13
39455;BME280;25155;41.890;23.446;2023-03-26T00:18:45;91241.97;;;5.82;57.16
39455;BME280;25155;41.890;23.446;2023-03-26T00:21:15;91236.81;;;5.77;56.76
39455;BME280;25155;41.890;23.446;2023-03-26T00:23:43;91241.75;;;5.79;56.73
39455;BME280;25155;41.890;23.446;2023-03-26T00:26:14;91245.66;;;5.76;56.73
39455;BME280;25155;41.890;23.446;2023-03-26T00:28:42;91241.47;;;5.75;57.56
39455;BME280;25155;41.890;23.446;2023-03-26T00:31:12;91239.16;;;5.74;56.70
39455;BME280;25155;41.890;23.446;2023-03-26T00:33:40;91234.47;;;5.76;56.49
39455;BME280;25155;41.890;23.446;2023-03-26T00:36:11;91217.31;;;5.75;56.61
39455;BME280;25155;41.890;23.446;2023-03-26T00:38:40;91224.06;;;5.76;57.35
39455;BME280;25155;41.890;23.446;2023-03-26T00:41:10;91226.94;;;5.74;58.88
39455;BME280;25155;41.890;23.446;2023-03-26T00:43:50;91231.97;;;5.55;58.33
39455;BME280;25155;41.890;23.446;2023-03-26T00:46:19;91233.84;;;5.44;59.48
39455;BME280;25155;41.890;23.446;2023-03-26T00:48:47;91235.09;;;5.42;58.32
39455;BME280;25155;41.890;23.446;2023-03-26T00:51:16;91235.38;;;5.40;58.33
39455;BME280;25155;41.890;23.446;2023-03-26T00:53:46;91238.22;;;5.39;57.83
39455;BME280;25155;41.890;23.446;2023-03-26T00:56:13;91237.47;;;5.38;57.59
39455;BME280;25155;41.890;23.446;2023-03-26T00:58:41;91234.09;;;5.38;57.74
39455;BME280;25155;41.890;23.446;2023-03-26T01:01:12;91238.50;;;5.32;57.65
39455;BME280;25155;41.890;23.446;2023-03-26T01:03:41;91232.06;;;5.24;58.41
39455;BME280;25155;41.890;23.446;2023-03-26T01:06:10;91232.59;;;5.16;58.19
39455;BME280;25155;41.890;23.446;2023-03-26T01:08:41;91242.72;;;5.12;58.36
39455;BME280;25155;41.890;23.446;2023-03-26T01:11:12;91227.19;;;5.02;59.69
39455;BME280;25155;41.890;23.446;2023-03-26T01:13:45;91228.50;;;4.84;60.69
39455;BME280;25155;41.890;23.446;2023-03-26T01:16:20;91222.06;;;4.56;62.52
39455;BME280;25155;41.890;23.446;2023-03-26T01:18:49;91221.81;;;4.47;63.35
39455;BME280;25155;41.890;23.446;2023-03-26T01:21:21;91217.66;;;4.56;65.05
39455;BME280;25155;41.890;23.446;2023-03-26T01:23:58;91210.09;;;4.81;65.57
39455;BME280;25155;41.890;23.446;2023-03-26T01:26:59;91214.44;;;5.01;65.60
39455;BME280;25155;41.890;23.446;2023-03-26T01:29:36;91201.16;;;5.23;65.00
39455;BME280;25155;41.890;23.446;2023-03-26T01:32:17;91193.81;;;5.35;64.84
39455;BME280;25155;41.890;23.446;2023-03-26T01:34:53;91197.72;;;5.38;65.01
39455;BME280;25155;41.890;23.446;2023-03-26T01:37:32;91204.72;;;5.47;64.98
39455;BME280;25155;41.890;23.446;2023-03-26T01:40:04;91202.84;;;5.58;64.94
39455;BME280;25155;41.890;23.446;2023-03-26T01:42:40;91210.59;;;5.63;64.74
39455;BME280;25155;41.890;23.446;2023-03-26T01:45:12;91213.72;;;5.65;65.16
39455;BME280;25155;41.890;23.446;2023-03-26T01:47:43;91222.03;;;5.67;65.09
39455;BME280;25155;41.890;23.446;2023-03-26T01:50:12;91225.13;;;5.75;64.64
39455;BME280;25155;41.890;23.446;2023-03-26T01:52:40;91226.91;;;5.79;64.98
39455;BME280;25155;41.890;23.446;2023-03-26T01:55:09;91231.31;;;5.84;64.64
39455;BME280;25155;41.890;23.446;2023-03-26T01:57:41;91227.25;;;5.67;64.80
39455;BME280;25155;41.890;23.446;2023-03-26T02:00:21;91229.47;;;5.84;64.34
39455;BME280;25155;41.890;23.446;2023-03-26T02:03:00;91237.81;;;5.81;64.67
39455;BME280;25155;41.890;23.446;2023-03-26T02:05:33;91233.91;;;5.84;64.32
39455;BME280;25155;41.890;23.446;2023-03-26T02:08:09;91238.56;;;5.92;64.44
39455;BME280;25155;41.890;23.446;2023-03-26T02:10:45;91242.13;;;6.01;64.06
39455;BME280;25155;41.890;23.446;2023-03-26T02:13:13;91234.84;;;5.98;63.83
39455;BME280;25155;41.890;23.446;2023-03-26T02:15:53;91238.25;;;5.99;63.30
39455;BME280;25155;41.890;23.446;2023-03-26T02:18:21;91245.22;;;6.03;63.11
39455;BME280;25155;41.890;23.446;2023-03-26T02:20:49;91242.66;;;5.98;62.55
39455;BME280;25155;41.890;23.446;2023-03-26T02:23:18;91258.53;;;6.02;62.96
39455;BME280;25155;41.890;23.446;2023-03-26T02:25:47;91257.72;;;6.01;62.20
39455;BME280;25155;41.890;23.446;2023-03-26T02:28:14;91255.13;;;6.01;62.39
39455;BME280;25155;41.890;23.446;2023-03-26T02:30:42;91257.72;;;6.01;61.95
39455;BME280;25155;41.890;23.446;2023-03-26T02:33:11;91242.91;;;5.97;61.35
39455;BME280;25155;41.890;23.446;2023-03-26T02:35:40;91245.75;;;6.05;61.07
39455;BME280;25155;41.890;23.446;2023-03-26T02:38:10;91247.78;;;6.14;60.64
39455;BME280;25155;41.890;23.446;2023-03-26T02:40:39;91248.34;;;6.05;60.42
39455;BME280;25155;41.890;23.446;2023-03-26T02:43:08;91250.41;;;6.03;60.34
39455;BME280;25155;41.890;23.446;2023-03-26T02:45:35;91252.03;;;5.99;60.19
39455;BME280;25155;41.890;23.446;2023-03-26T02:48:02;91255.69;;;5.93;60.02
39455;BME280;25155;41.890;23.446;2023-03-26T02:50:30;91245.31;;;5.88;59.89
39455;BME280;25155;41.890;23.446;2023-03-26T02:53:01;91245.84;;;5.85;60.25
39455;BME280;25155;41.890;23.446;2023-03-26T02:55:28;91255.47;;;5.84;60.16
39455;BME280;25155;41.890;23.446;2023-03-26T02:57:56;91248.47;;;5.80;60.08
39455;BME280;25155;41.890;23.446;2023-03-26T03:00:24;91251.38;;;5.73;60.27
39455;BME280;25155;41.890;23.446;2023-03-26T03:02:52;91248.50;;;5.75;60.70
39455;BME280;25155;41.890;23.446;2023-03-26T03:05:22;91247.50;;;5.65;60.61
39455;BME280;25155;41.890;23.446;2023-03-26T03:07:51;91255.84;;;5.62;60.72
39455;BME280;25155;41.890;23.446;2023-03-26T03:10:26;91259.50;;;5.61;60.68
39455;BME280;25155;41.890;23.446;2023-03-26T03:12:57;91260.78;;;5.59;60.35
39455;BME280;25155;41.890;23.446;2023-03-26T03:15:26;91264.75;;;5.51;60.33
39455;BME280;25155;41.890;23.446;2023-03-26T03:17:53;91264.22;;;5.54;60.24
39455;BME280;25155;41.890;23.446;2023-03-26T03:20:21;91267.34;;;5.51;60.11
39455;BME280;25155;41.890;23.446;2023-03-26T03:22:48;91275.69;;;5.43;59.71
39455;BME280;25155;41.890;23.446;2023-03-26T03:25:16;91267.88;;;5.48;59.39
39455;BME280;25155;41.890;23.446;2023-03-26T03:27:43;91267.88;;;5.43;59.10
39455;BME280;25155;41.890;23.446;2023-03-26T03:30:11;91278.75;;;5.50;59.02
39455;BME280;25155;41.890;23.446;2023-03-26T03:32:41;91274.88;;;5.47;58.93
39455;BME280;25155;41.890;23.446;2023-03-26T03:35:08;91285.47;;;5.61;58.65
39455;BME280;25155;41.890;23.446;2023-03-26T03:37:36;91275.84;;;5.62;58.66
39455;BME280;25155;41.890;23.446;2023-03-26T03:40:03;91285.00;;;5.54;59.00
39455;BME280;25155;41.890;23.446;2023-03-26T03:42:32;91268.38;;;5.40;59.39
39455;BME280;25155;41.890;23.446;2023-03-26T03:44:59;91283.19;;;5.49;59.19
39455;BME280;25155;41.890;23.446;2023-03-26T03:47:27;91287.63;;;5.44;59.96
39455;BME280;25155;41.890;23.446;2023-03-26T03:49:56;91293.34;;;5.25;60.01
39455;BME280;25155;41.890;23.446;2023-03-26T03:52:24;91296.75;;;5.21;60.79
39455;BME280;25155;41.890;23.446;2023-03-26T03:54:53;91292.34;;;5.21;60.72
39455;BME280;25155;41.890;23.446;2023-03-26T03:57:21;91299.88;;;5.12;60.80
39455;BME280;25155;41.890;23.446;2023-03-26T03:59:48;91311.06;;;4.98;60.91
39455;BME280;25155;41.890;23.446;2023-03-26T04:02:15;91314.19;;;4.94;61.25
39455;BME280;25155;41.890;23.446;2023-03-26T04:04:50;91321.19;;;4.99;61.19
39455;BME280;25155;41.890;23.446;2023-03-26T04:07:20;91315.47;;;4.97;60.88
39455;BME280;25155;41.890;23.446;2023-03-26T04:09:47;91314.19;;;5.05;60.78
39455;BME280;25155;41.890;23.446;2023-03-26T04:12:15;91296.78;;;4.95;60.97
39455;BME280;25155;41.890;23.446;2023-03-26T04:14:42;91315.75;;;4.90;60.88
39455;BME280;25155;41.890;23.446;2023-03-26T04:17:09;91306.66;;;4.93;60.83
39455;BME280;25155;41.890;23.446;2023-03-26T04:19:38;91313.41;;;4.94;60.49
39455;BME280;25155;41.890;23.446;2023-03-26T04:22:06;91313.66;;;4.98;60.49
39455;BME280;25155;41.890;23.446;2023-03-26T04:24:36;91298.34;;;4.86;60.48
39455;BME280;25155;41.890;23.446;2023-03-26T04:27:05;91302.25;;;4.88;60.39
39455;BME280;25155;41.890;23.446;2023-03-26T04:29:37;91310.06;;;4.83;60.19
39455;BME280;25155;41.890;23.446;2023-03-26T04:32:17;91303.03;;;4.89;59.99
39455;BME280;25155;41.890;23.446;2023-03-26T04:34:47;91311.06;;;4.98;59.69
39455;BME280;25155;41.890;23.446;2023-03-26T04:37:21;91308.47;;;5.03;59.10
39455;BME280;25155;41.890;23.446;2023-03-26T04:39:52;91308.47;;;4.98;58.87
39455;BME280;25155;41.890;23.446;2023-03-26T04:42:20;91315.47;;;5.02;58.98
39455;BME280;25155;41.890;23.446;2023-03-26T04:44:47;91317.03;;;5.03;59.06
39455;BME280;25155;41.890;23.446;2023-03-26T04:47:16;91323.00;;;5.04;59.12
39455;BME280;25155;41.890;23.446;2023-03-26T04:49:44;91337.31;;;4.96;59.63
39455;BME280;25155;41.890;23.446;2023-03-26T04:52:12;91326.38;;;5.09;58.99
39455;BME280;25155;41.890;23.446;2023-03-26T04:54:39;91342.75;;;5.00;59.90
39455;BME280;25155;41.890;23.446;2023-03-26T04:57:15;91340.16;;;4.89;59.99
39455;BME280;25155;41.890;23.446;2023-03-26T04:59:45;91336.00;;;4.88;59.90
39455;BME280;25155;41.890;23.446;2023-03-26T05:02:12;91340.94;;;4.90;60.05
39455;BME280;25155;41.890;23.446;2023-03-26T05:04:40;91332.34;;;4.84;60.25
39455;BME280;25155;41.890;23.446;2023-03-26T05:07:09;91325.13;;;4.81;60.14
39455;BME280;25155;41.890;23.446;2023-03-26T05:09:37;91336.53;;;4.90;60.08
39455;BME280;25155;41.890;23.446;2023-03-26T05:12:04;91351.31;;;4.95;60.20
39455;BME280;25155;41.890;23.446;2023-03-26T05:14:33;91352.63;;;5.03;60.28
39455;BME280;25155;41.890;23.446;2023-03-26T05:17:01;91351.03;;;5.12;59.61
39455;BME280;25155;41.890;23.446;2023-03-26T05:19:31;91350.78;;;5.19;59.06
39455;BME280;25155;41.890;23.446;2023-03-26T05:22:02;91335.44;;;5.22;59.34
39455;BME280;25155;41.890;23.446;2023-03-26T05:24:29;91343.75;;;5.35;58.87
39455;BME280;25155;41.890;23.446;2023-03-26T05:26:57;91345.59;;;5.34;58.91
39455;BME280;25155;41.890;23.446;2023-03-26T05:29:24;91340.13;;;5.46;58.91
39455;BME280;25155;41.890;23.446;2023-03-26T05:31:53;91350.50;;;5.51;58.69
39455;BME280;25155;41.890;23.446;2023-03-26T05:34:20;91351.78;;;5.64;58.36
39455;BME280;25155;41.890;23.446;2023-03-26T05:36:49;91346.81;;;5.73;57.96
39455;BME280;25155;41.890;23.446;2023-03-26T05:39:16;91348.84;;;5.81;57.58
39455;BME280;25155;41.890;23.446;2023-03-26T05:41:43;91356.13;;;5.74;57.94
39455;BME280;25155;41.890;23.446;2023-03-26T05:44:10;91347.84;;;5.72;57.92
39455;BME280;25155;41.890;23.446;2023-03-26T05:46:38;91357.94;;;5.83;56.96
39455;BME280;25155;41.890;23.446;2023-03-26T05:49:07;91368.59;;;5.92;57.17
39455;BME280;25155;41.890;23.446;2023-03-26T05:51:34;91361.25;;;5.99;56.64
39455;BME280;25155;41.890;23.446;2023-03-26T05:54:01;91367.53;;;5.93;56.21
39455;BME280;25155;41.890;23.446;2023-03-26T05:56:29;91374.03;;;5.96;56.44
39455;BME280;25155;41.890;23.446;2023-03-26T05:58:56;91373.22;;;5.95;56.22
39455;BME280;25155;41.890;23.446;2023-03-26T06:01:23;91370.09;;;6.03;55.71
39455;BME280;25155;41.890;23.446;2023-03-26T06:03:51;91381.53;;;6.08;55.96
39455;BME280;25155;41.890;23.446;2023-03-26T06:06:20;91381.72;;;6.21;55.64
39455;BME280;25155;41.890;23.446;2023-03-26T06:08:49;91390.81;;;6.24;55.69
39455;BME280;25155;41.890;23.446;2023-03-26T06:11:19;91383.53;;;6.26;55.37
39455;BME280;25155;41.890;23.446;2023-03-26T06:13:47;91381.16;;;6.30;55.31
39455;BME280;25155;41.890;23.446;2023-03-26T06:16:14;91395.97;;;6.34;54.93
39455;BME280;25155;41.890;23.446;2023-03-26T06:18:41;91401.72;;;6.31;55.40
39455;BME280;25155;41.890;23.446;2023-03-26T06:21:09;91404.00;;;6.43;56.04
39455;BME280;25155;41.890;23.446;2023-03-26T06:23:37;91402.69;;;6.46;54.76
39455;BME280;25155;41.890;23.446;2023-03-26T06:26:05;91407.06;;;6.55;55.61
39455;BME280;25155;41.890;23.446;2023-03-26T06:28:32;91406.00;;;6.62;55.22
39455;BME280;25155;41.890;23.446;2023-03-26T06:31:00;91407.28;;;6.64;55.22
39455;BME280;25155;41.890;23.446;2023-03-26T06:33:27;91417.97;;;6.63;55.05
39455;BME280;25155;41.890;23.446;2023-03-26T06:35:54;91411.66;;;6.74;55.30
39455;BME280;25155;41.890;23.446;2023-03-26T06:38:24;91409.81;;;6.74;55.71
39455;BME280;25155;41.890;23.446;2023-03-26T06:40:53;91400.19;;;6.75;55.44
39455;BME280;25155;41.890;23.446;2023-03-26T06:43:27;91409.16;;;6.93;55.34
39455;BME280;25155;41.890;23.446;2023-03-26T06:45:58;91403.88;;;7.08;55.40
39455;BME280;25155;41.890;23.446;2023-03-26T06:48:25;91405.34;;;7.20;55.50
39455;BME280;25155;41.890;23.446;2023-03-26T06:50:53;91417.53;;;7.29;54.61
39455;BME280;25155;41.890;23.446;2023-03-26T06:53:20;91419.84;;;7.36;53.86
39455;BME280;25155;41.890;23.446;2023-03-26T06:55:47;91417.53;;;7.34;53.67
39455;BME280;25155;41.890;23.446;2023-03-26T06:58:16;91417.22;;;7.41;54.00
39455;BME280;25155;41.890;23.446;2023-03-26T07:00:43;91415.28;;;7.52;53.84
39455;BME280;25155;41.890;23.446;2023-03-26T07:03:10;91410.75;;;7.63;53.54
39455;BME280;25155;41.890;23.446;2023-03-26T07:05:39;91407.03;;;7.69;53.45
39455;BME280;25155;41.890;23.446;2023-03-26T07:08:06;91410.59;;;7.78;52.63
39455;BME280;25155;41.890;23.446;2023-03-26T07:10:34;91413.03;;;7.94;52.82
39455;BME280;25155;41.890;23.446;2023-03-26T07:13:01;91413.34;;;8.16;51.92
39455;BME280;25155;41.890;23.446;2023-03-26T07:15:30;91406.88;;;8.33;51.56
39455;BME280;25155;41.890;23.446;2023-03-26T07:17:58;91408.81;;;8.46;51.23
39455;BME280;25155;41.890;23.446;2023-03-26T07:20:25;91414.97;;;8.55;50.58
39455;BME280;25155;41.890;23.446;2023-03-26T07:22:53;91420.28;;;8.69;51.06
39455;BME280;25155;41.890;23.446;2023-03-26T07:25:21;91413.66;;;8.96;50.00
39455;BME280;25155;41.890;23.446;2023-03-26T07:27:56;91409.16;;;9.02;49.72
39455;BME280;25155;41.890;23.446;2023-03-26T07:30:29;91409.97;;;9.16;50.26
39455;BME280;25155;41.890;23.446;2023-03-26T07:33:03;91418.94;;;9.29;48.65
39455;BME280;25155;41.890;23.446;2023-03-26T07:35:37;91409.06;;;9.26;48.16
39455;BME280;25155;41.890;23.446;2023-03-26T07:38:25;91403.66;;;9.36;48.28
39455;BME280;25155;41.890;23.446;2023-03-26T07:41:03;91409.69;;;9.36;47.82
39455;BME280;25155;41.890;23.446;2023-03-26T07:43:49;91405.25;;;9.51;48.89
39455;BME280;25155;41.890;23.446;2023-03-26T07:46:20;91405.22;;;9.70;48.36
39455;BME280;25155;41.890;23.446;2023-03-26T07:48:52;91407.06;;;9.83;47.06
39455;BME280;25155;41.890;23.446;2023-03-26T07:51:22;91403.97;;;9.95;46.53
39455;BME280;25155;41.890;23.446;2023-03-26T07:53:50;91399.72;;;9.99;44.17
39455;BME280;25155;41.890;23.446;2023-03-26T07:56:19;91403.03;;;10.05;46.52
39455;BME280;25155;41.890;23.446;2023-03-26T07:59:01;91401.28;;;10.14;45.38
39455;BME280;25155;41.890;23.446;2023-03-26T08:01:42;91409.06;;;10.33;45.34
39455;BME280;25155;41.890;23.446;2023-03-26T08:04:44;91400.28;;;10.24;45.43
39455;BME280;25155;41.890;23.446;2023-03-26T08:07:22;91397.59;;;10.29;46.14
39455;BME280;25155;41.890;23.446;2023-03-26T08:10:00;91412.16;;;10.35;45.40
39455;BME280;25155;41.890;23.446;2023-03-26T08:12:39;91406.75;;;10.45;45.38
39455;BME280;25155;41.890;23.446;2023-03-26T08:15:13;91413.59;;;10.55;45.23
39455;BME280;25155;41.890;23.446;2023-03-26T08:17:49;91404.38;;;10.58;44.55
39455;BME280;25155;41.890;23.446;2023-03-26T08:20:28;91401.84;;;10.66;44.22
39455;BME280;25155;41.890;23.446;2023-03-26T08:23:06;91397.34;;;10.81;43.90
39455;BME280;25155;41.890;23.446;2023-03-26T08:25:41;91398.59;;;10.83;44.07
39455;BME280;25155;41.890;23.446;2023-03-26T08:28:27;91395.38;;;10.87;43.82
39455;BME280;25155;41.890;23.446;2023-03-26T08:31:02;91396.59;;;11.03;44.53
39455;BME280;25155;41.890;23.446;2023-03-26T08:33:30;91397.06;;;11.19;43.97
39455;BME280;25155;41.890;23.446;2023-03-26T08:36:00;91389.41;;;11.31;43.70
39455;BME280;25155;41.890;23.446;2023-03-26T08:38:28;91386.28;;;11.43;43.46
39455;BME280;25155;41.890;23.446;2023-03-26T08:44:26;91391.75;;;11.33;43.74
39455;BME280;25155;41.890;23.446;2023-03-26T08:50:26;91381.78;;;11.44;42.38
39455;BME280;25155;41.890;23.446;2023-03-26T08:53:34;91383.66;;;11.20;42.83
39455;BME280;25155;41.890;23.446;2023-03-26T08:56:07;91372.41;;;11.06;42.44
39455;BME280;25155;41.890;23.446;2023-03-26T09:02:14;91374.50;;;10.95;44.49
39455;BME280;25155;41.890;23.446;2023-03-26T09:05:18;91369.25;;;11.18;43.48
39455;BME280;25155;41.890;23.446;2023-03-26T09:14:41;91370.34;;;11.39;42.13
39455;BME280;25155;41.890;23.446;2023-03-26T09:17:53;91359.97;;;11.34;42.02
39455;BME280;25155;41.890;23.446;2023-03-26T09:26:59;91341.41;;;11.53;41.87
39455;BME280;25155;41.890;23.446;2023-03-26T09:33:06;91361.88;;;11.97;40.36
39455;BME280;25155;41.890;23.446;2023-03-26T09:35:53;91357.72;;;12.04;40.84
39455;BME280;25155;41.890;23.446;2023-03-26T09:38:36;91364.41;;;12.19;40.00
39455;BME280;25155;41.890;23.446;2023-03-26T09:41:13;91360.44;;;12.30;40.91
39455;BME280;25155;41.890;23.446;2023-03-26T09:44:14;91347.78;;;12.32;39.14
39455;BME280;25155;41.890;23.446;2023-03-26T09:46:56;91357.53;;;12.41;39.10
39455;BME280;25155;41.890;23.446;2023-03-26T09:49:40;91363.41;;;12.46;39.29
39455;BME280;25155;41.890;23.446;2023-03-26T09:52:27;91348.75;;;12.54;38.57
39455;BME280;25155;41.890;23.446;2023-03-26T09:55:27;91358.34;;;12.67;39.79
39455;BME280;25155;41.890;23.446;2023-03-26T09:58:13;91363.78;;;12.80;38.32
39455;BME280;25155;41.890;23.446;2023-03-26T10:00:50;91350.66;;;12.89;38.09
39455;BME280;25155;41.890;23.446;2023-03-26T10:03:32;91344.31;;;12.90;37.47
39455;BME280;25155;41.890;23.446;2023-03-26T10:06:24;91352.81;;;12.86;36.99
39455;BME280;25155;41.890;23.446;2023-03-26T10:09:05;91351.59;;;12.84;36.62
39455;BME280;25155;41.890;23.446;2023-03-26T10:11:57;91349.44;;;12.86;35.88
39455;BME280;25155;41.890;23.446;2023-03-26T10:14:31;91340.47;;;12.96;35.98
39455;BME280;25155;41.890;23.446;2023-03-26T10:17:10;91343.38;;;13.03;36.23
39455;BME280;25155;41.890;23.446;2023-03-26T10:19:59;91342.63;;;13.02;35.46
39455;BME280;25155;41.890;23.446;2023-03-26T10:22:44;91345.38;;;13.15;35.08
39455;BME280;25155;41.890;23.446;2023-03-26T10:25:27;91338.59;;;13.22;36.33
39455;BME280;25155;41.890;23.446;2023-03-26T10:28:13;91350.31;;;13.42;35.04
39455;BME280;25155;41.890;23.446;2023-03-26T10:33:55;91327.72;;;13.41;34.10
39455;BME280;25155;41.890;23.446;2023-03-26T10:36:28;91317.81;;;13.47;33.28
39455;BME280;25155;41.890;23.446;2023-03-26T10:42:19;91312.22;;;13.49;32.74
39455;BME280;25155;41.890;23.446;2023-03-26T10:45:05;91318.09;;;13.54;32.82
39455;BME280;25155;41.890;23.446;2023-03-26T10:47:54;91310.50;;;13.53;32.70
39455;BME280;25155;41.890;23.446;2023-03-26T10:50:45;91322.41;;;13.59;31.67
39455;BME280;25155;41.890;23.446;2023-03-26T10:53:25;91314.16;;;13.69;32.18
39455;BME280;25155;41.890;23.446;2023-03-26T10:56:01;91309.41;;;13.63;31.94
39455;BME280;25155;41.890;23.446;2023-03-26T10:58:35;91305.97;;;13.71;31.33
39455;BME280;25155;41.890;23.446;2023-03-26T11:01:30;91309.25;;;13.59;30.03
39455;BME280;25155;41.890;23.446;2023-03-26T11:04:06;91303.22;;;13.58;29.46
39455;BME280;25155;41.890;23.446;2023-03-26T11:06:44;91291.03;;;13.36;29.37
39455;BME280;25155;41.890;23.446;2023-03-26T11:09:23;91282.19;;;13.41;28.62
39455;BME280;25155;41.890;23.446;2023-03-26T11:12:00;91288.97;;;13.59;28.43
39455;BME280;25155;41.890;23.446;2023-03-26T11:14:32;91289.56;;;13.65;27.48
39455;BME280;25155;41.890;23.446;2023-03-26T11:17:11;91277.63;;;13.68;26.69
39455;BME280;25155;41.890;23.446;2023-03-26T11:19:47;91278.25;;;13.73;26.20
39455;BME280;25155;41.890;23.446;2023-03-26T11:22:23;91287.97;;;13.82;27.51
39455;BME280;25155;41.890;23.446;2023-03-26T11:27:55;91278.66;;;13.84;26.25
39455;BME280;25155;41.890;23.446;2023-03-26T11:30:29;91283.09;;;14.01;26.21
39455;BME280;25155;41.890;23.446;2023-03-26T11:33:01;91278.13;;;14.00;25.56
39455;BME280;25155;41.890;23.446;2023-03-26T11:35:31;91269.59;;;14.03;25.11
39455;BME280;25155;41.890;23.446;2023-03-26T11:38:04;91282.44;;;14.04;24.94
39455;BME280;25155;41.890;23.446;2023-03-26T11:40:36;91266.94;;;14.11;25.64
39455;BME280;25155;41.890;23.446;2023-03-26T11:43:07;91273.03;;;14.03;25.77
39455;BME280;25155;41.890;23.446;2023-03-26T11:45:41;91271.69;;;13.88;25.70
39455;BME280;25155;41.890;23.446;2023-03-26T11:48:13;91262.56;;;13.77;25.65
39455;BME280;25155;41.890;23.446;2023-03-26T11:50:46;91266.91;;;13.82;25.94
39455;BME280;25155;41.890;23.446;2023-03-26T11:53:17;91270.59;;;13.89;26.28
39455;BME280;25155;41.890;23.446;2023-03-26T11:55:49;91258.47;;;13.97;25.59
39455;BME280;25155;41.890;23.446;2023-03-26T11:58:27;91244.69;;;14.00;25.99
39455;BME280;25155;41.890;23.446;2023-03-26T12:00:56;91256.09;;;14.04;25.81
39455;BME280;25155;41.890;23.446;2023-03-26T12:03:24;91252.41;;;14.05;25.58
39455;BME280;25155;41.890;23.446;2023-03-26T12:05:57;91246.50;;;14.08;26.19
39455;BME280;25155;41.890;23.446;2023-03-26T12:08:36;91240.13;;;14.09;26.77
39455;BME280;25155;41.890;23.446;2023-03-26T12:11:07;91233.13;;;14.13;24.96
39455;BME280;25155;41.890;23.446;2023-03-26T12:13:38;91236.03;;;14.21;25.87
39455;BME280;25155;41.890;23.446;2023-03-26T12:16:11;91238.47;;;14.26;25.13
39455;BME280;25155;41.890;23.446;2023-03-26T12:18:40;91236.63;;;14.26;25.14
39455;BME280;25155;41.890;23.446;2023-03-26T12:21:11;91229.28;;;14.32;25.84
39455;BME280;25155;41.890;23.446;2023-03-26T12:23:50;91221.25;;;14.28;25.34
39455;BME280;25155;41.890;23.446;2023-03-26T12:26:30;91222.47;;;14.31;25.45
39455;BME280;25155;41.890;23.446;2023-03-26T12:29:05;91223.97;;;14.20;25.38
39455;BME280;25155;41.890;23.446;2023-03-26T12:31:40;91206.03;;;14.13;24.54
39455;BME280;25155;41.890;23.446;2023-03-26T12:34:16;91218.09;;;14.14;25.68
39455;BME280;25155;41.890;23.446;2023-03-26T12:36:49;91209.78;;;14.24;24.69
39455;BME280;25155;41.890;23.446;2023-03-26T12:39:34;91197.41;;;14.25;24.73
39455;BME280;25155;41.890;23.446;2023-03-26T12:42:04;91208.00;;;14.37;25.13
39455;BME280;25155;41.890;23.446;2023-03-26T12:44:43;91185.56;;;14.31;24.64
39455;BME280;25155;41.890;23.446;2023-03-26T12:47:17;91187.69;;;14.17;23.94
39455;BME280;25155;41.890;23.446;2023-03-26T12:49:46;91191.94;;;14.09;23.74
39455;BME280;25155;41.890;23.446;2023-03-26T12:52:29;91189.75;;;14.11;23.63
39455;BME280;25155;41.890;23.446;2023-03-26T12:55:12;91188.91;;;14.19;24.37
39455;BME280;25155;41.890;23.446;2023-03-26T12:57:48;91191.16;;;14.29;24.10
39455;BME280;25155;41.890;23.446;2023-03-26T13:00:27;91188.84;;;14.49;24.31
39455;BME280;25155;41.890;23.446;2023-03-26T13:03:10;91192.72;;;14.51;23.03
39455;BME280;25155;41.890;23.446;2023-03-26T13:05:49;91196.50;;;14.63;23.94
39455;BME280;25155;41.890;23.446;2023-03-26T13:08:36;91189.13;;;14.56;23.47
39455;BME280;25155;41.890;23.446;2023-03-26T13:11:17;91197.78;;;14.57;23.05
39455;BME280;25155;41.890;23.446;2023-03-26T13:14:05;91195.91;;;14.57;22.26
39455;BME280;25155;41.890;23.446;2023-03-26T13:16:40;91202.09;;;14.61;22.82
39455;BME280;25155;41.890;23.446;2023-03-26T13:19:15;91194.81;;;14.58;22.65
39455;BME280;25155;41.890;23.446;2023-03-26T13:21:59;91195.91;;;14.57;21.87
39455;BME280;25155;41.890;23.446;2023-03-26T13:24:38;91191.44;;;14.58;22.20
39455;BME280;25155;41.890;23.446;2023-03-26T13:27:26;91194.69;;;14.55;21.36
39455;BME280;25155;41.890;23.446;2023-03-26T13:29:59;91189.13;;;14.56;21.44
39455;BME280;25155;41.890;23.446;2023-03-26T13:32:40;91195.34;;;14.51;21.85
39455;BME280;25155;41.890;23.446;2023-03-26T13:35:20;91188.47;;;14.59;21.36
39455;BME280;25155;41.890;23.446;2023-03-26T13:37:55;91181.88;;;14.65;20.68
39455;BME280;25155;41.890;23.446;2023-03-26T13:40:27;91189.25;;;14.72;20.66
39455;BME280;25155;41.890;23.446;2023-03-26T13:46:09;91186.22;;;14.82;21.90
39455;BME280;25155;41.890;23.446;2023-03-26T13:48:44;91191.50;;;14.82;21.44
39455;BME280;25155;41.890;23.446;2023-03-26T13:51:16;91200.03;;;14.88;20.48
39455;BME280;25155;41.890;23.446;2023-03-26T13:53:49;91203.59;;;14.83;21.20
39455;BME280;25155;41.890;23.446;2023-03-26T13:56:21;91194.34;;;14.77;21.00
39455;BME280;25155;41.890;23.446;2023-03-26T13:58:54;91192.38;;;14.74;21.39
39455;BME280;25155;41.890;23.446;2023-03-26T14:01:28;91193.91;;;14.75;21.38
39455;BME280;25155;41.890;23.446;2023-03-26T14:04:04;91200.59;;;14.73;20.57
39455;BME280;25155;41.890;23.446;2023-03-26T14:06:41;91197.81;;;14.69;21.16